sensor_id;sensor_type;location;lat;lon;timestamp;P1;durP1;ratioP1;P2;durP2;ratioP2
10132;SDS011;5106;50.926;7.080;2023-01-15T00:01:02;0.43;;;0.43;;
10132;SDS011;5106;50.926;7.080;2023-01-15T00:03:29;1.47;;;0.50;;
10132;SDS011;5106;50.926;7.080;2023-01-15T00:05:55;0.50;;;0.30;;
10132;SDS011;5106;50.926;7.080;2023-01-15T00:08:21;1.37;;;0.53;;
10132;SDS011;5106;50.926;7.080;2023-01-15T00:10:46;0.93;;;0.40;;
10132;SDS011;5106;50.926;7.080;2023-01-15T00:13:12;1.33;;;0.60;;
10132;SDS011;5106;50.926;7.080;2023-01-15T00:15:38;0.87;;;0.37;;
10132;SDS011;5106;50.926;7.080;2023-01-15T00:18:03;0.83;;;0.40;;
10132;SDS011;5106;50.926;7.080;2023-01-15T00:20:29;0.97;;;0.53;;
10132;SDS011;5106;50.926;7.080;2023-01-15T00:22:55;1.03;;;0.50;;
10132;SDS011;5106;50.926;7.080;2023-01-15T00:25:20;1.53;;;0.60;;
10132;SDS011;5106;50.926;7.080;2023-01-15T00:28:06;1.60;;;0.60;;
10132;SDS011;5106;50.926;7.080;2023-01-15T00:30:31;2.90;;;0.77;;
10132;SDS011;5106;50.926;7.080;2023-01-15T00:32:57;0.93;;;0.60;;
10132;SDS011;5106;50.926;7.080;2023-01-15T00:35:23;1.70;;;0.60;;
10132;SDS011;5106;50.926;7.080;2023-01-15T00:37:50;2.43;;;0.60;;
10132;SDS011;5106;50.926;7.080;2023-01-15T00:40:17;0.87;;;0.30;;
10132;SDS011;5106;50.926;7.080;2023-01-15T00:42:44;2.07;;;0.83;;
10132;SDS011;5106;50.926;7.080;2023-01-15T00:45:10;2.17;;;0.80;;
10132;SDS011;5106;50.926;7.080;2023-01-15T00:50:07;0.83;;;0.50;;
10132;SDS011;5106;50.926;7.080;2023-01-15T00:52:34;1.60;;;0.53;;
10132;SDS011;5106;50.926;7.080;2023-01-15T00:55:00;1.30;;;0.47;;
10132;SDS011;5106;50.926;7.080;2023-01-15T00:57:26;2.30;;;0.80;;
10132;SDS011;5106;50.926;7.080;2023-01-15T00:59:51;2.73;;;0.60;;
10132;SDS011;5106;50.926;7.080;2023-01-15T01:02:17;2.33;;;0.70;;
10132;SDS011;5106;50.926;7.080;2023-01-15T01:04:43;1.40;;;0.67;;
10132;SDS011;5106;50.926;7.080;2023-01-15T01:07:09;1.70;;;0.43;;
10132;SDS011;5106;50.926;7.080;2023-01-15T01:09:35;2.63;;;0.50;;
10132;SDS011;5106;50.926;7.080;2023-01-15T01:12:00;2.30;;;0.70;;
10132;SDS011;5106;50.926;7.080;2023-01-15T01:14:26;1.97;;;0.80;;
10132;SDS011;5106;50.926;7.080;2023-01-15T01:16:52;2.73;;;0.73;;
10132;SDS011;5106;50.926;7.080;2023-01-15T01:19:19;2.20;;;0.67;;
10132;SDS011;5106;50.926;7.080;2023-01-15T01:21:46;2.43;;;0.97;;
10132;SDS011;5106;50.926;7.080;2023-01-15T01:24:14;1.13;;;0.50;;
10132;SDS011;5106;50.926;7.080;2023-01-15T01:26:42;1.07;;;0.80;;
10132;SDS011;5106;50.926;7.080;2023-01-15T01:29:11;1.33;;;0.67;;
10132;SDS011;5106;50.926;7.080;2023-01-15T01:31:38;1.53;;;0.60;;
10132;SDS011;5106;50.926;7.080;2023-01-15T01:34:03;2.47;;;0.60;;
10132;SDS011;5106;50.926;7.080;2023-01-15T01:36:30;3.00;;;0.67;;
10132;SDS011;5106;50.926;7.080;2023-01-15T01:38:58;2.90;;;0.70;;
10132;SDS011;5106;50.926;7.080;2023-01-15T01:41:24;1.63;;;0.70;;
10132;SDS011;5106;50.926;7.080;2023-01-15T01:46:19;1.93;;;0.90;;
10132;SDS011;5106;50.926;7.080;2023-01-15T01:48:45;1.40;;;0.73;;
10132;SDS011;5106;50.926;7.080;2023-01-15T01:51:14;0.90;;;0.50;;
10132;SDS011;5106;50.926;7.080;2023-01-15T01:53:41;1.87;;;0.80;;
10132;SDS011;5106;50.926;7.080;2023-01-15T01:56:08;1.63;;;0.53;;
10132;SDS011;5106;50.926;7.080;2023-01-15T01:58:41;1.57;;;0.77;;
10132;SDS011;5106;50.926;7.080;2023-01-15T02:01:09;1.77;;;0.57;;
10132;SDS011;5106;50.926;7.080;2023-01-15T02:03:36;0.83;;;0.50;;
10132;SDS011;5106;50.926;7.080;2023-01-15T02:06:04;0.80;;;0.40;;
10132;SDS011;5106;50.926;7.080;2023-01-15T02:08:32;0.83;;;0.40;;
10132;SDS011;5106;50.926;7.080;2023-01-15T02:10:59;1.70;;;0.30;;
10132;SDS011;5106;50.926;7.080;2023-01-15T02:18:48;0.60;;;0.30;;
10132;SDS011;5106;50.926;7.080;2023-01-15T02:24:30;1.37;;;0.60;;
10132;SDS011;5106;50.926;7.080;2023-01-15T02:32:07;0.93;;;0.40;;
10132;SDS011;5106;50.926;7.080;2023-01-15T02:34:40;0.60;;;0.30;;
10132;SDS011;5106;50.926;7.080;2023-01-15T02:37:14;1.80;;;0.40;;
10132;SDS011;5106;50.926;7.080;2023-01-15T02:39:44;1.50;;;0.40;;
10132;SDS011;5106;50.926;7.080;2023-01-15T02:42:11;0.67;;;0.30;;
10132;SDS011;5106;50.926;7.080;2023-01-15T02:44:40;0.83;;;0.37;;
10132;SDS011;5106;50.926;7.080;2023-01-15T02:47:11;1.00;;;0.57;;
10132;SDS011;5106;50.926;7.080;2023-01-15T02:49:38;1.43;;;0.50;;
10132;SDS011;5106;50.926;7.080;2023-01-15T02:52:07;0.63;;;0.50;;
10132;SDS011;5106;50.926;7.080;2023-01-15T02:54:42;1.13;;;0.37;;
10132;SDS011;5106;50.926;7.080;2023-01-15T02:57:10;1.70;;;0.60;;
10132;SDS011;5106;50.926;7.080;2023-01-15T02:59:42;1.70;;;0.63;;
10132;SDS011;5106;50.926;7.080;2023-01-15T03:02:18;2.60;;;0.50;;
10132;SDS011;5106;50.926;7.080;2023-01-15T03:04:52;1.23;;;0.40;;
10132;SDS011;5106;50.926;7.080;2023-01-15T03:07:23;2.20;;;0.40;;
10132;SDS011;5106;50.926;7.080;2023-01-15T03:10:08;1.37;;;0.57;;
10132;SDS011;5106;50.926;7.080;2023-01-15T03:18:32;0.53;;;0.40;;
10132;SDS011;5106;50.926;7.080;2023-01-15T03:21:04;1.67;;;0.40;;
10132;SDS011;5106;50.926;7.080;2023-01-15T03:23:34;0.93;;;0.40;;
10132;SDS011;5106;50.926;7.080;2023-01-15T03:26:04;0.90;;;0.50;;
10132;SDS011;5106;50.926;7.080;2023-01-15T03:28:30;1.37;;;0.30;;
10132;SDS011;5106;50.926;7.080;2023-01-15T03:31:00;1.10;;;0.40;;
10132;SDS011;5106;50.926;7.080;2023-01-15T03:33:27;3.60;;;0.60;;
10132;SDS011;5106;50.926;7.080;2023-01-15T03:35:55;2.60;;;0.57;;
10132;SDS011;5106;50.926;7.080;2023-01-15T03:38:24;1.57;;;0.60;;
10132;SDS011;5106;50.926;7.080;2023-01-15T03:41:14;2.50;;;0.50;;
10132;SDS011;5106;50.926;7.080;2023-01-15T03:52:30;3.87;;;0.70;;
10132;SDS011;5106;50.926;7.080;2023-01-15T03:57:34;2.23;;;0.47;;
10132;SDS011;5106;50.926;7.080;2023-01-15T04:02:48;2.13;;;0.57;;
10132;SDS011;5106;50.926;7.080;2023-01-15T04:05:17;2.47;;;0.60;;
10132;SDS011;5106;50.926;7.080;2023-01-15T04:07:43;2.87;;;0.70;;
10132;SDS011;5106;50.926;7.080;2023-01-15T04:10:11;2.03;;;0.70;;
10132;SDS011;5106;50.926;7.080;2023-01-15T04:12:36;1.70;;;0.77;;
10132;SDS011;5106;50.926;7.080;2023-01-15T04:15:02;3.03;;;0.70;;
10132;SDS011;5106;50.926;7.080;2023-01-15T04:17:28;2.83;;;0.50;;
10132;SDS011;5106;50.926;7.080;2023-01-15T04:19:54;1.47;;;0.60;;
10132;SDS011;5106;50.926;7.080;2023-01-15T04:22:19;1.60;;;0.53;;
10132;SDS011;5106;50.926;7.080;2023-01-15T04:24:45;3.20;;;0.60;;
10132;SDS011;5106;50.926;7.080;2023-01-15T04:27:10;2.27;;;0.70;;
10132;SDS011;5106;50.926;7.080;2023-01-15T04:29:36;2.40;;;0.80;;
10132;SDS011;5106;50.926;7.080;2023-01-15T04:32:02;1.60;;;0.87;;
10132;SDS011;5106;50.926;7.080;2023-01-15T04:34:28;2.57;;;0.70;;
10132;SDS011;5106;50.926;7.080;2023-01-15T04:36:54;1.77;;;0.50;;
10132;SDS011;5106;50.926;7.080;2023-01-15T04:39:20;1.60;;;0.90;;
10132;SDS011;5106;50.926;7.080;2023-01-15T04:41:46;3.07;;;0.50;;
10132;SDS011;5106;50.926;7.080;2023-01-15T04:44:32;2.20;;;0.60;;
10132;SDS011;5106;50.926;7.080;2023-01-15T04:46:58;1.83;;;0.70;;
10132;SDS011;5106;50.926;7.080;2023-01-15T04:49:25;1.33;;;0.50;;
10132;SDS011;5106;50.926;7.080;2023-01-15T04:51:51;1.27;;;0.70;;
10132;SDS011;5106;50.926;7.080;2023-01-15T04:54:17;2.10;;;0.67;;
10132;SDS011;5106;50.926;7.080;2023-01-15T04:56:44;2.77;;;0.70;;
10132;SDS011;5106;50.926;7.080;2023-01-15T04:59:11;1.27;;;0.60;;
10132;SDS011;5106;50.926;7.080;2023-01-15T05:01:38;2.57;;;0.90;;
10132;SDS011;5106;50.926;7.080;2023-01-15T05:04:05;4.47;;;0.97;;
10132;SDS011;5106;50.926;7.080;2023-01-15T05:06:31;2.63;;;0.93;;
10132;SDS011;5106;50.926;7.080;2023-01-15T05:08:58;2.97;;;0.70;;
10132;SDS011;5106;50.926;7.080;2023-01-15T05:11:24;3.40;;;0.87;;
10132;SDS011;5106;50.926;7.080;2023-01-15T05:13:51;3.93;;;1.00;;
10132;SDS011;5106;50.926;7.080;2023-01-15T05:16:17;2.47;;;0.93;;
10132;SDS011;5106;50.926;7.080;2023-01-15T05:18:51;1.77;;;0.77;;
10132;SDS011;5106;50.926;7.080;2023-01-15T05:21:25;1.53;;;0.83;;
10132;SDS011;5106;50.926;7.080;2023-01-15T05:23:52;1.77;;;0.90;;
10132;SDS011;5106;50.926;7.080;2023-01-15T05:26:19;2.13;;;0.70;;
10132;SDS011;5106;50.926;7.080;2023-01-15T05:28:46;2.77;;;0.80;;
10132;SDS011;5106;50.926;7.080;2023-01-15T05:31:14;3.67;;;1.10;;
10132;SDS011;5106;50.926;7.080;2023-01-15T05:33:41;2.43;;;0.70;;
10132;SDS011;5106;50.926;7.080;2023-01-15T05:36:09;1.93;;;0.83;;
10132;SDS011;5106;50.926;7.080;2023-01-15T05:38:37;3.40;;;0.80;;
10132;SDS011;5106;50.926;7.080;2023-01-15T05:41:06;2.90;;;0.67;;
10132;SDS011;5106;50.926;7.080;2023-01-15T05:43:54;1.37;;;0.60;;
10132;SDS011;5106;50.926;7.080;2023-01-15T05:46:21;2.57;;;0.80;;
10132;SDS011;5106;50.926;7.080;2023-01-15T05:48:47;1.63;;;0.70;;
10132;SDS011;5106;50.926;7.080;2023-01-15T05:51:13;2.93;;;0.80;;
10132;SDS011;5106;50.926;7.080;2023-01-15T05:53:38;2.07;;;1.20;;
10132;SDS011;5106;50.926;7.080;2023-01-15T05:56:04;4.57;;;1.00;;
10132;SDS011;5106;50.926;7.080;2023-01-15T05:58:30;4.03;;;0.60;;
10132;SDS011;5106;50.926;7.080;2023-01-15T06:00:56;3.63;;;0.70;;
10132;SDS011;5106;50.926;7.080;2023-01-15T06:03:22;2.93;;;0.97;;
10132;SDS011;5106;50.926;7.080;2023-01-15T06:05:50;2.97;;;1.07;;
10132;SDS011;5106;50.926;7.080;2023-01-15T06:08:16;5.47;;;0.70;;
10132;SDS011;5106;50.926;7.080;2023-01-15T06:10:45;3.47;;;0.87;;
10132;SDS011;5106;50.926;7.080;2023-01-15T06:13:11;2.50;;;0.80;;
10132;SDS011;5106;50.926;7.080;2023-01-15T06:15:37;2.93;;;1.37;;
10132;SDS011;5106;50.926;7.080;2023-01-15T06:18:03;5.47;;;0.90;;
10132;SDS011;5106;50.926;7.080;2023-01-15T06:20:29;4.43;;;1.03;;
10132;SDS011;5106;50.926;7.080;2023-01-15T06:22:54;3.80;;;1.00;;
10132;SDS011;5106;50.926;7.080;2023-01-15T06:25:20;4.60;;;1.17;;
10132;SDS011;5106;50.926;7.080;2023-01-15T06:27:46;7.33;;;1.17;;
10132;SDS011;5106;50.926;7.080;2023-01-15T06:30:13;2.80;;;0.80;;
10132;SDS011;5106;50.926;7.080;2023-01-15T06:32:39;2.80;;;1.00;;
10132;SDS011;5106;50.926;7.080;2023-01-15T06:35:05;3.00;;;0.90;;
10132;SDS011;5106;50.926;7.080;2023-01-15T06:37:31;2.13;;;0.83;;
10132;SDS011;5106;50.926;7.080;2023-01-15T06:39:57;2.77;;;0.90;;
10132;SDS011;5106;50.926;7.080;2023-01-15T06:42:22;2.30;;;0.90;;
10132;SDS011;5106;50.926;7.080;2023-01-15T06:45:10;2.57;;;1.00;;
10132;SDS011;5106;50.926;7.080;2023-01-15T06:47:55;2.13;;;0.80;;
10132;SDS011;5106;50.926;7.080;2023-01-15T06:50:21;5.23;;;0.90;;
10132;SDS011;5106;50.926;7.080;2023-01-15T06:52:47;2.67;;;0.80;;
10132;SDS011;5106;50.926;7.080;2023-01-15T06:55:13;1.97;;;0.60;;
10132;SDS011;5106;50.926;7.080;2023-01-15T06:57:39;1.93;;;0.63;;
10132;SDS011;5106;50.926;7.080;2023-01-15T07:00:08;3.73;;;0.80;;
10132;SDS011;5106;50.926;7.080;2023-01-15T07:02:35;1.30;;;0.50;;
10132;SDS011;5106;50.926;7.080;2023-01-15T07:05:00;3.77;;;0.60;;
10132;SDS011;5106;50.926;7.080;2023-01-15T07:07:26;2.83;;;0.70;;
10132;SDS011;5106;50.926;7.080;2023-01-15T07:09:53;0.97;;;0.47;;
10132;SDS011;5106;50.926;7.080;2023-01-15T07:12:19;0.67;;;0.50;;
10132;SDS011;5106;50.926;7.080;2023-01-15T07:14:45;1.80;;;0.40;;
10132;SDS011;5106;50.926;7.080;2023-01-15T07:17:10;1.23;;;0.60;;
10132;SDS011;5106;50.926;7.080;2023-01-15T07:19:37;1.10;;;0.50;;
10132;SDS011;5106;50.926;7.080;2023-01-15T07:22:03;1.00;;;0.23;;
10132;SDS011;5106;50.926;7.080;2023-01-15T07:24:29;0.70;;;0.30;;
10132;SDS011;5106;50.926;7.080;2023-01-15T07:26:54;0.63;;;0.30;;
10132;SDS011;5106;50.926;7.080;2023-01-15T07:29:20;1.00;;;0.40;;
10132;SDS011;5106;50.926;7.080;2023-01-15T07:31:47;1.90;;;0.70;;
10132;SDS011;5106;50.926;7.080;2023-01-15T07:34:13;1.07;;;0.60;;
10132;SDS011;5106;50.926;7.080;2023-01-15T07:36:39;0.87;;;0.50;;
10132;SDS011;5106;50.926;7.080;2023-01-15T07:39:05;0.53;;;0.30;;
10132;SDS011;5106;50.926;7.080;2023-01-15T07:41:32;2.40;;;0.93;;
10132;SDS011;5106;50.926;7.080;2023-01-15T07:44:16;0.70;;;0.50;;
10132;SDS011;5106;50.926;7.080;2023-01-15T07:47:00;0.90;;;0.57;;
10132;SDS011;5106;50.926;7.080;2023-01-15T07:49:45;1.20;;;0.50;;
10132;SDS011;5106;50.926;7.080;2023-01-15T07:52:13;2.57;;;0.67;;
10132;SDS011;5106;50.926;7.080;2023-01-15T07:54:40;2.23;;;0.57;;
10132;SDS011;5106;50.926;7.080;2023-01-15T07:57:06;1.40;;;0.80;;
10132;SDS011;5106;50.926;7.080;2023-01-15T07:59:32;0.50;;;0.40;;
10132;SDS011;5106;50.926;7.080;2023-01-15T08:01:58;1.80;;;0.77;;
10132;SDS011;5106;50.926;7.080;2023-01-15T08:04:24;0.93;;;0.70;;
10132;SDS011;5106;50.926;7.080;2023-01-15T08:06:49;1.30;;;0.63;;
10132;SDS011;5106;50.926;7.080;2023-01-15T08:09:15;1.47;;;0.53;;
10132;SDS011;5106;50.926;7.080;2023-01-15T08:11:41;0.73;;;0.33;;
10132;SDS011;5106;50.926;7.080;2023-01-15T08:14:25;1.77;;;0.50;;
10132;SDS011;5106;50.926;7.080;2023-01-15T08:17:09;1.17;;;0.80;;
10132;SDS011;5106;50.926;7.080;2023-01-15T08:19:34;2.23;;;0.70;;
10132;SDS011;5106;50.926;7.080;2023-01-15T08:22:00;0.30;;;0.20;;
10132;SDS011;5106;50.926;7.080;2023-01-15T08:24:26;0.83;;;0.47;;
10132;SDS011;5106;50.926;7.080;2023-01-15T08:26:52;2.03;;;0.30;;
10132;SDS011;5106;50.926;7.080;2023-01-15T08:29:19;1.17;;;0.60;;
10132;SDS011;5106;50.926;7.080;2023-01-15T08:31:45;1.13;;;0.30;;
10132;SDS011;5106;50.926;7.080;2023-01-15T08:34:10;0.57;;;0.40;;
10132;SDS011;5106;50.926;7.080;2023-01-15T08:36:36;1.67;;;0.60;;
10132;SDS011;5106;50.926;7.080;2023-01-15T08:39:02;3.40;;;0.40;;
10132;SDS011;5106;50.926;7.080;2023-01-15T08:41:28;1.23;;;0.40;;
10132;SDS011;5106;50.926;7.080;2023-01-15T08:43:54;2.67;;;0.43;;
10132;SDS011;5106;50.926;7.080;2023-01-15T08:46:20;1.07;;;0.37;;
10132;SDS011;5106;50.926;7.080;2023-01-15T08:48:47;1.00;;;0.40;;
10132;SDS011;5106;50.926;7.080;2023-01-15T08:51:13;0.33;;;0.30;;
10132;SDS011;5106;50.926;7.080;2023-01-15T08:53:39;0.80;;;0.37;;
10132;SDS011;5106;50.926;7.080;2023-01-15T08:56:11;0.77;;;0.40;;
10132;SDS011;5106;50.926;7.080;2023-01-15T08:58:40;0.93;;;0.30;;
10132;SDS011;5106;50.926;7.080;2023-01-15T09:01:07;0.93;;;0.37;;
10132;SDS011;5106;50.926;7.080;2023-01-15T09:03:34;1.20;;;0.50;;
10132;SDS011;5106;50.926;7.080;2023-01-15T09:06:00;3.23;;;0.37;;
10132;SDS011;5106;50.926;7.080;2023-01-15T09:08:26;2.43;;;0.60;;
10132;SDS011;5106;50.926;7.080;2023-01-15T09:10:56;2.00;;;0.60;;
10132;SDS011;5106;50.926;7.080;2023-01-15T09:13:23;1.57;;;0.73;;
10132;SDS011;5106;50.926;7.080;2023-01-15T09:15:49;2.03;;;0.87;;
10132;SDS011;5106;50.926;7.080;2023-01-15T09:18:15;2.07;;;1.00;;
10132;SDS011;5106;50.926;7.080;2023-01-15T09:20:43;1.63;;;0.80;;
10132;SDS011;5106;50.926;7.080;2023-01-15T09:23:09;1.63;;;0.77;;
10132;SDS011;5106;50.926;7.080;2023-01-15T09:25:35;2.60;;;1.00;;
10132;SDS011;5106;50.926;7.080;2023-01-15T09:28:00;2.90;;;1.00;;
10132;SDS011;5106;50.926;7.080;2023-01-15T09:30:26;1.37;;;0.83;;
10132;SDS011;5106;50.926;7.080;2023-01-15T09:32:51;2.83;;;1.00;;
10132;SDS011;5106;50.926;7.080;2023-01-15T09:35:17;2.43;;;0.90;;
10132;SDS011;5106;50.926;7.080;2023-01-15T09:37:43;4.83;;;1.20;;
10132;SDS011;5106;50.926;7.080;2023-01-15T09:40:19;4.67;;;0.97;;
10132;SDS011;5106;50.926;7.080;2023-01-15T09:43:06;3.83;;;1.07;;
10132;SDS011;5106;50.926;7.080;2023-01-15T09:45:42;1.57;;;0.90;;
10132;SDS011;5106;50.926;7.080;2023-01-15T09:56:29;3.37;;;1.13;;
10132;SDS011;5106;50.926;7.080;2023-01-15T09:58:57;1.60;;;1.03;;
10132;SDS011;5106;50.926;7.080;2023-01-15T10:01:29;4.17;;;1.33;;
10132;SDS011;5106;50.926;7.080;2023-01-15T10:03:58;7.53;;;1.30;;
10132;SDS011;5106;50.926;7.080;2023-01-15T10:06:27;4.10;;;1.10;;
10132;SDS011;5106;50.926;7.080;2023-01-15T10:09:16;3.97;;;1.10;;
10132;SDS011;5106;50.926;7.080;2023-01-15T10:11:47;3.67;;;1.50;;
10132;SDS011;5106;50.926;7.080;2023-01-15T10:20:04;3.77;;;1.20;;
10132;SDS011;5106;50.926;7.080;2023-01-15T10:25:17;3.10;;;0.97;;
10132;SDS011;5106;50.926;7.080;2023-01-15T10:27:49;4.30;;;0.90;;
10132;SDS011;5106;50.926;7.080;2023-01-15T10:32:53;4.83;;;1.20;;
10132;SDS011;5106;50.926;7.080;2023-01-15T10:35:40;3.90;;;1.10;;
10132;SDS011;5106;50.926;7.080;2023-01-15T10:46:21;3.70;;;1.17;;
10132;SDS011;5106;50.926;7.080;2023-01-15T10:48:50;5.63;;;1.10;;
10132;SDS011;5106;50.926;7.080;2023-01-15T10:57:24;5.70;;;1.70;;
10132;SDS011;5106;50.926;7.080;2023-01-15T10:59:57;3.63;;;1.23;;
10132;SDS011;5106;50.926;7.080;2023-01-15T11:02:38;4.87;;;1.37;;
10132;SDS011;5106;50.926;7.080;2023-01-15T11:05:05;3.83;;;1.10;;
10132;SDS011;5106;50.926;7.080;2023-01-15T11:08:11;4.33;;;0.90;;
10132;SDS011;5106;50.926;7.080;2023-01-15T11:10:30;3.40;;;0.87;;
10132;SDS011;5106;50.926;7.080;2023-01-15T11:13:14;3.43;;;1.13;;
10132;SDS011;5106;50.926;7.080;2023-01-15T11:16:04;3.27;;;1.00;;
10132;SDS011;5106;50.926;7.080;2023-01-15T11:18:56;4.47;;;1.30;;
10132;SDS011;5106;50.926;7.080;2023-01-15T11:21:45;2.50;;;1.00;;
10132;SDS011;5106;50.926;7.080;2023-01-15T11:24:15;2.93;;;1.00;;
10132;SDS011;5106;50.926;7.080;2023-01-15T11:26:50;2.60;;;1.10;;
10132;SDS011;5106;50.926;7.080;2023-01-15T11:29:30;4.23;;;1.10;;
10132;SDS011;5106;50.926;7.080;2023-01-15T11:32:00;2.37;;;0.63;;
10132;SDS011;5106;50.926;7.080;2023-01-15T11:34:26;3.67;;;1.00;;
10132;SDS011;5106;50.926;7.080;2023-01-15T11:37:01;3.27;;;1.13;;
10132;SDS011;5106;50.926;7.080;2023-01-15T11:39:30;2.77;;;1.10;;
10132;SDS011;5106;50.926;7.080;2023-01-15T11:41:58;3.30;;;0.93;;
10132;SDS011;5106;50.926;7.080;2023-01-15T11:44:53;3.03;;;1.10;;
10132;SDS011;5106;50.926;7.080;2023-01-15T11:47:50;8.57;;;1.30;;
10132;SDS011;5106;50.926;7.080;2023-01-15T11:50:38;3.80;;;1.27;;
10132;SDS011;5106;50.926;7.080;2023-01-15T11:53:18;3.47;;;1.00;;
10132;SDS011;5106;50.926;7.080;2023-01-15T11:55:49;4.83;;;1.00;;
10132;SDS011;5106;50.926;7.080;2023-01-15T11:58:23;3.13;;;0.87;;
10132;SDS011;5106;50.926;7.080;2023-01-15T12:00:56;4.47;;;1.00;;
10132;SDS011;5106;50.926;7.080;2023-01-15T12:03:24;2.03;;;0.80;;
10132;SDS011;5106;50.926;7.080;2023-01-15T12:05:54;2.67;;;1.00;;
10132;SDS011;5106;50.926;7.080;2023-01-15T12:08:38;2.50;;;0.90;;
10132;SDS011;5106;50.926;7.080;2023-01-15T12:14:00;2.90;;;0.90;;
10132;SDS011;5106;50.926;7.080;2023-01-15T12:16:44;4.67;;;1.00;;
10132;SDS011;5106;50.926;7.080;2023-01-15T12:19:41;2.00;;;1.03;;
10132;SDS011;5106;50.926;7.080;2023-01-15T12:28:13;3.23;;;0.80;;
10132;SDS011;5106;50.926;7.080;2023-01-15T12:30:53;3.83;;;0.93;;
10132;SDS011;5106;50.926;7.080;2023-01-15T12:33:39;4.93;;;1.10;;
10132;SDS011;5106;50.926;7.080;2023-01-15T12:39:04;1.13;;;0.70;;
10132;SDS011;5106;50.926;7.080;2023-01-15T12:41:38;2.30;;;1.00;;
10132;SDS011;5106;50.926;7.080;2023-01-15T12:44:29;5.97;;;1.20;;
10132;SDS011;5106;50.926;7.080;2023-01-15T12:47:21;2.57;;;1.00;;
10132;SDS011;5106;50.926;7.080;2023-01-15T12:50:14;2.10;;;0.90;;
10132;SDS011;5106;50.926;7.080;2023-01-15T12:53:02;2.53;;;1.03;;
10132;SDS011;5106;50.926;7.080;2023-01-15T12:55:32;2.10;;;1.00;;
10132;SDS011;5106;50.926;7.080;2023-01-15T12:58:02;5.37;;;1.13;;
10132;SDS011;5106;50.926;7.080;2023-01-15T13:00:35;3.70;;;1.00;;
10132;SDS011;5106;50.926;7.080;2023-01-15T13:03:26;3.63;;;0.80;;
10132;SDS011;5106;50.926;7.080;2023-01-15T13:05:57;4.43;;;0.90;;
10132;SDS011;5106;50.926;7.080;2023-01-15T13:08:32;2.03;;;0.80;;
10132;SDS011;5106;50.926;7.080;2023-01-15T13:11:10;2.37;;;0.87;;
10132;SDS011;5106;50.926;7.080;2023-01-15T13:13:38;3.00;;;0.87;;
10132;SDS011;5106;50.926;7.080;2023-01-15T13:22:04;2.33;;;0.70;;
10132;SDS011;5106;50.926;7.080;2023-01-15T13:33:55;5.03;;;1.10;;
10132;SDS011;5106;50.926;7.080;2023-01-15T13:36:25;3.03;;;1.00;;
10132;SDS011;5106;50.926;7.080;2023-01-15T13:38:55;1.37;;;0.80;;
10132;SDS011;5106;50.926;7.080;2023-01-15T13:41:24;1.17;;;0.80;;
10132;SDS011;5106;50.926;7.080;2023-01-15T13:44:18;5.37;;;1.10;;
10132;SDS011;5106;50.926;7.080;2023-01-15T13:46:45;3.73;;;1.27;;
10132;SDS011;5106;50.926;7.080;2023-01-15T13:49:19;2.33;;;1.10;;
10132;SDS011;5106;50.926;7.080;2023-01-15T13:51:49;1.80;;;0.70;;
10132;SDS011;5106;50.926;7.080;2023-01-15T13:54:16;1.57;;;0.63;;
10132;SDS011;5106;50.926;7.080;2023-01-15T13:56:45;3.27;;;0.80;;
10132;SDS011;5106;50.926;7.080;2023-01-15T14:02:12;3.70;;;1.20;;
10132;SDS011;5106;50.926;7.080;2023-01-15T14:04:46;2.97;;;0.73;;
10132;SDS011;5106;50.926;7.080;2023-01-15T14:07:30;4.57;;;0.97;;
10132;SDS011;5106;50.926;7.080;2023-01-15T14:10:20;3.63;;;1.03;;
10132;SDS011;5106;50.926;7.080;2023-01-15T14:12:53;2.43;;;0.90;;
10132;SDS011;5106;50.926;7.080;2023-01-15T14:24:02;2.00;;;0.90;;
10132;SDS011;5106;50.926;7.080;2023-01-15T14:27:12;2.13;;;0.70;;
10132;SDS011;5106;50.926;7.080;2023-01-15T14:29:42;1.77;;;0.80;;
10132;SDS011;5106;50.926;7.080;2023-01-15T14:34:52;4.47;;;1.00;;
10132;SDS011;5106;50.926;7.080;2023-01-15T14:37:29;3.70;;;0.70;;
10132;SDS011;5106;50.926;7.080;2023-01-15T14:39:56;4.10;;;1.10;;
10132;SDS011;5106;50.926;7.080;2023-01-15T14:42:42;1.80;;;0.80;;
10132;SDS011;5106;50.926;7.080;2023-01-15T14:45:32;3.13;;;0.97;;
10132;SDS011;5106;50.926;7.080;2023-01-15T14:48:14;3.97;;;0.80;;
10132;SDS011;5106;50.926;7.080;2023-01-15T14:50:43;2.73;;;0.90;;
10132;SDS011;5106;50.926;7.080;2023-01-15T14:55:36;1.77;;;0.73;;
10132;SDS011;5106;50.926;7.080;2023-01-15T15:01:24;3.43;;;0.97;;
10132;SDS011;5106;50.926;7.080;2023-01-15T15:04:03;2.17;;;0.63;;
10132;SDS011;5106;50.926;7.080;2023-01-15T15:06:53;1.70;;;0.57;;
10132;SDS011;5106;50.926;7.080;2023-01-15T15:11:58;3.97;;;0.90;;
10132;SDS011;5106;50.926;7.080;2023-01-15T15:14:52;3.43;;;0.73;;
10132;SDS011;5106;50.926;7.080;2023-01-15T15:23:41;2.67;;;1.00;;
10132;SDS011;5106;50.926;7.080;2023-01-15T15:26:20;1.67;;;0.80;;
10132;SDS011;5106;50.926;7.080;2023-01-15T15:31:21;1.63;;;0.70;;
10132;SDS011;5106;50.926;7.080;2023-01-15T15:33:50;6.90;;;1.20;;
10132;SDS011;5106;50.926;7.080;2023-01-15T15:36:18;2.43;;;0.80;;
10132;SDS011;5106;50.926;7.080;2023-01-15T15:38:58;1.80;;;0.80;;
10132;SDS011;5106;50.926;7.080;2023-01-15T15:41:29;3.83;;;0.50;;
10132;SDS011;5106;50.926;7.080;2023-01-15T15:44:25;1.00;;;0.60;;
10132;SDS011;5106;50.926;7.080;2023-01-15T15:47:20;2.70;;;0.60;;
10132;SDS011;5106;50.926;7.080;2023-01-15T15:50:05;3.07;;;0.70;;
10132;SDS011;5106;50.926;7.080;2023-01-15T15:52:31;3.27;;;0.87;;
10132;SDS011;5106;50.926;7.080;2023-01-15T15:54:58;1.50;;;0.53;;
10132;SDS011;5106;50.926;7.080;2023-01-15T15:57:25;1.50;;;0.57;;
10132;SDS011;5106;50.926;7.080;2023-01-15T15:59:53;4.20;;;0.80;;
10132;SDS011;5106;50.926;7.080;2023-01-15T16:04:51;2.30;;;0.60;;
10132;SDS011;5106;50.926;7.080;2023-01-15T16:07:22;1.77;;;0.80;;
10132;SDS011;5106;50.926;7.080;2023-01-15T16:09:52;2.50;;;0.93;;
10132;SDS011;5106;50.926;7.080;2023-01-15T16:12:20;2.70;;;0.80;;
10132;SDS011;5106;50.926;7.080;2023-01-15T16:14:46;1.83;;;0.70;;
10132;SDS011;5106;50.926;7.080;2023-01-15T16:17:13;1.00;;;0.60;;
10132;SDS011;5106;50.926;7.080;2023-01-15T16:19:40;2.30;;;0.60;;
10132;SDS011;5106;50.926;7.080;2023-01-15T16:22:07;2.93;;;0.90;;
10132;SDS011;5106;50.926;7.080;2023-01-15T16:24:36;3.17;;;1.20;;
10132;SDS011;5106;50.926;7.080;2023-01-15T16:27:05;1.87;;;0.90;;
10132;SDS011;5106;50.926;7.080;2023-01-15T16:29:37;2.97;;;1.13;;
10132;SDS011;5106;50.926;7.080;2023-01-15T16:32:12;2.17;;;1.00;;
10132;SDS011;5106;50.926;7.080;2023-01-15T16:34:44;3.33;;;1.07;;
10132;SDS011;5106;50.926;7.080;2023-01-15T16:37:25;1.23;;;0.73;;
10132;SDS011;5106;50.926;7.080;2023-01-15T16:39:55;2.27;;;0.90;;
10132;SDS011;5106;50.926;7.080;2023-01-15T16:44:55;1.90;;;0.90;;
10132;SDS011;5106;50.926;7.080;2023-01-15T16:47:26;2.17;;;1.00;;
10132;SDS011;5106;50.926;7.080;2023-01-15T16:50:19;2.80;;;1.00;;
10132;SDS011;5106;50.926;7.080;2023-01-15T16:52:48;1.87;;;1.10;;
10132;SDS011;5106;50.926;7.080;2023-01-15T16:55:33;2.83;;;1.10;;
10132;SDS011;5106;50.926;7.080;2023-01-15T17:00:36;2.27;;;1.03;;
10132;SDS011;5106;50.926;7.080;2023-01-15T17:03:21;3.17;;;1.17;;
10132;SDS011;5106;50.926;7.080;2023-01-15T17:05:48;2.07;;;1.20;;
10132;SDS011;5106;50.926;7.080;2023-01-15T17:08:20;2.60;;;1.10;;
10132;SDS011;5106;50.926;7.080;2023-01-15T17:10:59;2.60;;;0.90;;
10132;SDS011;5106;50.926;7.080;2023-01-15T17:13:29;2.73;;;1.27;;
10132;SDS011;5106;50.926;7.080;2023-01-15T17:18:45;1.70;;;0.90;;
10132;SDS011;5106;50.926;7.080;2023-01-15T17:21:18;2.40;;;1.03;;
10132;SDS011;5106;50.926;7.080;2023-01-15T17:23:47;1.80;;;0.93;;
10132;SDS011;5106;50.926;7.080;2023-01-15T17:26:15;2.83;;;1.10;;
10132;SDS011;5106;50.926;7.080;2023-01-15T17:28:44;1.73;;;0.83;;
10132;SDS011;5106;50.926;7.080;2023-01-15T17:31:14;3.10;;;1.20;;
10132;SDS011;5106;50.926;7.080;2023-01-15T17:33:47;2.03;;;1.10;;
10132;SDS011;5106;50.926;7.080;2023-01-15T17:36:14;4.03;;;1.30;;
10132;SDS011;5106;50.926;7.080;2023-01-15T17:38:40;1.60;;;0.90;;
10132;SDS011;5106;50.926;7.080;2023-01-15T17:41:08;1.97;;;1.00;;
10132;SDS011;5106;50.926;7.080;2023-01-15T17:43:38;2.53;;;0.80;;